Time;durP1;ratioP1;P1;durP2;ratioP2;P2;SDS_P1;SDS_P2;PMS_P1;PMS_P2;Temp;Humidity;BMP_temperature;BMP_pressure;BME280_temperature;BME280_humidity;BME280_pressure;Samples;Min_cycle;Max_cycle;Signal;HPM_P1;HPM_P2
2023/01/01 00:00:01;;;;;;;10.65;3.00;;;;;;;15.15;58.19;100868.00;5072778;28;20113;-45
2023/01/01 00:02:26;;;;;;;13.55;3.25;;;;;;;15.13;58.92;100842.09;5075583;28;20046;-45
2023/01/01 00:04:52;;;;;;;15.48;3.88;;;;;;;15.15;58.73;100850.72;5071172;28;20114;-46
2023/01/01 00:07:17;;;;;;;13.57;3.90;;;;;;;15.15;58.69;100862.81;5071656;28;20032;-49
2023/01/01 00:12:27;;;;;;;13.98;3.03;;;;;;;15.13;58.84;100864.53;5071212;28;20420;-45
2023/01/01 00:14:52;;;;;;;13.98;3.40;;;;;;;15.12;58.65;100861.06;5079937;28;20036;-43
2023/01/01 00:17:17;;;;;;;10.98;3.47;;;;;;;15.11;58.81;100872.28;5068249;28;20032;-47
2023/01/01 00:19:43;;;;;;;16.20;3.28;;;;;;;15.13;58.61;100878.34;5072143;28;20032;-47
2023/01/01 00:22:08;;;;;;;12.63;2.50;;;;;;;15.11;58.14;100871.44;5078982;28;20035;-44
2023/01/01 00:24:34;;;;;;;6.88;2.33;;;;;;;15.12;57.96;100873.16;5078742;28;20129;-43
2023/01/01 00:26:59;;;;;;;11.70;2.67;;;;;;;15.12;58.04;100858.47;5077970;28;20088;-45
2023/01/01 00:29:24;;;;;;;17.23;3.10;;;;;;;15.12;57.98;100862.81;5067620;28;20060;-44
2023/01/01 00:31:50;;;;;;;9.40;2.60;;;;;;;15.11;58.16;100869.69;5072713;28;20503;-43
2023/01/01 00:34:15;;;;;;;11.27;2.60;;;;;;;15.12;57.43;100879.22;5078718;28;20088;-48
2023/01/01 00:36:40;;;;;;;9.00;3.08;;;;;;;15.11;58.09;100871.44;5065805;28;20470;-45
2023/01/01 00:39:06;;;;;;;12.63;2.55;;;;;;;15.10;57.84;100901.59;5069753;28;20427;-44
2023/01/01 00:41:31;;;;;;;12.95;3.83;;;;;;;15.10;57.25;100869.66;5069579;28;20074;-45
2023/01/01 00:43:56;;;;;;;11.80;2.70;;;;;;;15.10;57.23;100856.72;5074370;28;20042;-45
2023/01/01 00:46:22;;;;;;;10.73;2.30;;;;;;;15.13;56.75;100880.06;5064907;28;20515;-42
2023/01/01 00:48:47;;;;;;;12.52;2.10;;;;;;;15.15;56.97;100865.41;5071319;28;20040;-46
2023/01/01 00:51:12;;;;;;;10.80;2.50;;;;;;;15.15;57.32;100868.84;5074713;28;20032;-45
2023/01/01 00:53:38;;;;;;;13.63;2.38;;;;;;;15.15;57.45;100868.00;5068222;28;20089;-44
2023/01/01 00:56:04;;;;;;;10.35;2.38;;;;;;;15.16;57.82;100874.91;5073485;28;20420;-46
2023/01/01 00:58:29;;;;;;;9.23;2.08;;;;;;;15.17;57.52;100876.66;5065643;28;20025;-44
2023/01/01 01:00:55;;;;;;;14.40;2.80;;;;;;;15.17;57.79;100880.13;5065841;28;20039;-43
2023/01/01 01:03:27;;;;;;;10.57;2.50;;;;;;;15.15;58.27;100894.75;5079899;28;20028;-46
2023/01/01 01:05:57;;;;;;;10.35;2.20;;;;;;;15.15;58.30;100893.88;5072659;28;20457;-46
2023/01/01 01:08:24;;;;;;;8.13;2.38;;;;;;;15.13;58.21;100880.94;5078487;28;20032;-47
2023/01/01 01:10:50;;;;;;;9.30;2.08;;;;;;;15.11;57.70;100877.47;5075419;28;20369;-44
2023/01/01 01:13:15;;;;;;;7.53;2.30;;;;;;;15.12;57.52;100893.88;5076106;28;20119;-45
2023/01/01 01:15:40;;;;;;;9.27;2.50;;;;;;;15.13;57.55;100877.47;5079193;28;20039;-46
2023/01/01 01:18:06;;;;;;;9.70;2.38;;;;;;;15.10;57.58;100880.03;5074376;28;20032;-44
2023/01/01 01:20:31;;;;;;;9.63;2.00;;;;;;;15.10;57.72;100872.25;5073291;28;20035;-44
2023/01/01 01:22:57;;;;;;;8.48;2.17;;;;;;;15.10;57.55;100869.66;5070478;28;20068;-44
2023/01/01 01:25:22;;;;;;;11.38;2.55;;;;;;;15.09;57.74;100863.63;5075431;28;20040;-43
2023/01/01 01:27:47;;;;;;;10.02;2.25;;;;;;;15.09;57.69;100868.81;5068224;28;20028;-45
2023/01/01 01:30:13;;;;;;;5.85;1.88;;;;;;;15.09;58.21;100886.06;5067334;28;20048;-43
2023/01/01 01:32:38;;;;;;;8.63;2.40;;;;;;;15.08;57.99;100892.09;5066139;28;20039;-46
2023/01/01 01:35:04;;;;;;;10.60;2.30;;;;;;;15.07;58.28;100882.59;5070088;28;20034;-44
2023/01/01 01:37:29;;;;;;;10.63;2.50;;;;;;;15.06;57.97;100893.81;5069235;28;20451;-45
2023/01/01 01:39:55;;;;;;;6.75;1.95;;;;;;;15.07;57.53;100905.91;5072763;28;20025;-42
2023/01/01 01:42:21;;;;;;;11.52;2.10;;;;;;;15.07;57.66;100921.44;5067887;28;20337;-45
2023/01/01 01:45:01;;;;;;;11.60;2.15;;;;;;;15.07;58.60;100913.69;5069390;28;20181;-43
2023/01/01 01:47:29;;;;;;;8.45;2.03;;;;;;;15.02;58.52;100900.66;5070606;28;20042;-44
2023/01/01 01:50:07;;;;;;;8.67;2.33;;;;;;;15.03;57.84;100885.13;5070134;28;20107;-45
2023/01/01 01:52:35;;;;;;;5.75;2.05;;;;;;;15.03;57.55;100897.22;5069991;28;20389;-45
2023/01/01 01:55:04;;;;;;;7.55;2.50;;;;;;;15.02;57.96;100914.47;5084513;28;20085;-47
2023/01/01 01:57:30;;;;;;;8.77;2.47;;;;;;;15.02;57.81;100916.22;5068826;28;20105;-43
2023/01/01 01:59:57;;;;;;;7.78;2.17;;;;;;;15.00;57.86;100913.59;5077872;28;20040;-45
2023/01/01 02:02:37;;;;;;;9.88;2.70;;;;;;;15.01;58.59;100920.53;5072430;28;20072;-45
2023/01/01 02:05:04;;;;;;;7.80;2.80;;;;;;;14.97;58.17;100936.00;5074071;28;20020;-45
2023/01/01 02:07:32;;;;;;;11.48;2.00;;;;;;;14.96;57.64;100923.91;5073807;28;20123;-42
2023/01/01 02:09:58;;;;;;;8.03;2.30;;;;;;;14.96;57.77;100945.50;5071262;28;20032;-45
2023/01/01 02:12:25;;;;;;;7.32;2.13;;;;;;;14.95;57.47;100942.88;5068018;28;20044;-44
2023/01/01 02:14:51;;;;;;;10.43;2.30;;;;;;;14.94;57.46;100954.97;5065511;28;20028;-42
2023/01/01 02:17:30;;;;;;;8.02;2.17;;;;;;;14.95;57.47;100937.72;5066889;28;20051;-41
2023/01/01 02:20:20;;;;;;;8.13;2.45;;;;;;;14.92;57.58;100941.13;5065429;28;20031;-44
2023/01/01 02:23:07;;;;;;;8.73;2.15;;;;;;;14.93;57.88;100937.69;5063800;28;20159;-43
2023/01/01 02:25:51;;;;;;;7.88;2.00;;;;;;;14.90;57.54;100940.25;5071566;28;20055;-44
2023/01/01 02:28:22;;;;;;;10.90;2.22;;;;;;;14.91;57.29;100933.34;5072028;28;20036;-43
2023/01/01 02:30:51;;;;;;;9.65;2.30;;;;;;;14.87;57.01;100934.19;5069984;28;20396;-42
2023/01/01 02:33:22;;;;;;;7.38;1.90;;;;;;;14.86;57.03;100928.09;5072128;28;20082;-41
2023/01/01 02:35:53;;;;;;;13.50;2.13;;;;;;;14.85;57.13;100941.91;5072971;28;20099;-41
2023/01/01 02:38:40;;;;;;;9.82;2.13;;;;;;;14.87;57.23;100927.28;5072205;28;20075;-45
2023/01/01 02:41:11;;;;;;;13.95;2.08;;;;;;;14.83;56.82;100933.25;5068551;28;20047;-44
2023/01/01 02:43:37;;;;;;;9.15;1.90;;;;;;;14.81;56.72;100932.38;5068011;28;20024;-45
2023/01/01 02:46:07;;;;;;;13.35;2.17;;;;;;;14.81;56.58;100927.22;5071600;28;20385;-45
2023/01/01 02:48:45;;;;;;;7.05;2.10;;;;;;;14.82;56.76;100941.00;5070260;28;20032;-44
2023/01/01 02:51:38;;;;;;;7.28;1.90;;;;;;;14.82;57.16;100938.44;5076125;28;20028;-42
2023/01/01 02:54:15;;;;;;;7.60;2.10;;;;;;;14.79;56.52;100952.19;5069268;28;20485;-42
2023/01/01 02:56:47;;;;;;;10.15;1.83;;;;;;;14.78;57.16;100944.41;5068602;28;20028;-42
2023/01/01 03:02:51;;;;;;;6.13;1.90;;;;;;;14.78;57.47;100952.19;5067780;28;20128;-41
2023/01/01 03:05:25;;;;;;;7.43;1.77;;;;;;;14.76;57.20;100949.56;5073247;28;20031;-40
2023/01/01 03:08:19;;;;;;;6.57;1.70;;;;;;;14.77;57.43;100965.97;5071297;28;20393;-45
2023/01/01 03:11:07;;;;;;;13.88;2.17;;;;;;;14.75;57.63;100965.97;5055108;28;20025;-42
2023/01/01 03:14:08;;;;;;;8.90;2.05;;;;;;;14.75;57.79;100965.97;5065928;28;20067;-41
2023/01/01 03:16:41;;;;;;;7.55;1.90;;;;;;;14.70;57.48;100960.72;5063166;28;20071;-42
2023/01/01 03:19:13;;;;;;;8.43;1.98;;;;;;;14.71;57.72;100971.94;5075562;28;20036;-43
2023/01/01 03:21:47;;;;;;;6.78;2.13;;;;;;;14.71;57.80;100964.19;5066978;28;20021;-43
2023/01/01 03:24:21;;;;;;;6.30;1.92;;;;;;;14.70;57.92;100980.56;5077130;28;20029;-42
2023/01/01 03:26:51;;;;;;;9.88;2.13;;;;;;;14.71;57.80;100959.88;5062836;28;20074;-44
2023/01/01 03:29:17;;;;;;;7.85;1.85;;;;;;;14.68;57.74;100972.78;5071006;28;20497;-42
2023/01/01 03:31:47;;;;;;;6.88;1.50;;;;;;;14.66;58.02;100973.59;5073451;28;20020;-42
2023/01/01 03:34:19;;;;;;;3.65;1.33;;;;;;;14.67;58.40;100973.59;5077510;28;20028;-42
2023/01/01 03:36:50;;;;;;;7.57;1.83;;;;;;;14.65;58.39;100967.53;5074579;28;20048;-46
2023/01/01 03:39:26;;;;;;;10.30;1.95;;;;;;;14.67;58.84;100971.00;5070602;28;22529;-42
2023/01/01 03:42:16;;;;;;;8.65;1.95;;;;;;;14.66;59.04;100987.41;5074789;28;20033;-42
2023/01/01 03:44:55;;;;;;;10.18;1.90;;;;;;;14.65;58.99;100989.97;5080358;28;20028;-42
2023/01/01 03:47:20;;;;;;;10.60;2.00;;;;;;;14.64;58.86;100993.41;5076915;28;20495;-41
2023/01/01 03:49:46;;;;;;;6.55;1.70;;;;;;;14.63;59.39;100994.28;5075757;28;20139;-42
2023/01/01 03:52:27;;;;;;;7.80;2.05;;;;;;;14.64;59.69;100998.59;5073417;28;20090;-43
2023/01/01 03:55:12;;;;;;;6.53;1.92;;;;;;;14.63;59.95;100994.28;5074012;28;20024;-42
2023/01/01 03:57:54;;;;;;;8.73;2.03;;;;;;;14.64;59.68;101009.81;5076425;28;20035;-42
2023/01/01 04:00:23;;;;;;;7.50;1.70;;;;;;;14.61;59.79;101008.88;5072521;28;20028;-42
2023/01/01 04:02:55;;;;;;;7.45;1.65;;;;;;;14.61;59.81;101003.72;5070187;28;20027;-42
2023/01/01 04:05:23;;;;;;;4.80;1.70;;;;;;;14.59;60.06;101001.09;5073125;28;20040;-44
2023/01/01 04:07:50;;;;;;;8.80;1.73;;;;;;;14.57;59.82;100999.38;5072930;28;20021;-41
2023/01/01 04:10:16;;;;;;;7.35;1.70;;;;;;;14.55;60.45;101001.03;5077421;28;20507;-42
2023/01/01 04:12:49;;;;;;;8.23;1.63;;;;;;;14.57;60.46;101018.34;5072383;28;20059;-46
2023/01/01 04:15:20;;;;;;;8.68;1.73;;;;;;;14.57;60.70;101012.31;5073431;28;20048;-41
2023/01/01 04:17:46;;;;;;;6.55;1.65;;;;;;;14.54;60.82;101007.94;5066798;28;20052;-41
2023/01/01 04:20:13;;;;;;;6.03;1.60;;;;;;;14.56;60.94;101011.44;5072526;28;20064;-44
2023/01/01 04:22:38;;;;;;;8.15;1.77;;;;;;;14.54;60.92;101022.59;5067264;28;20032;-41
2023/01/01 04:25:04;;;;;;;6.65;1.58;;;;;;;14.54;60.80;101032.94;5074832;28;20036;-45
2023/01/01 04:27:30;;;;;;;8.48;1.63;;;;;;;14.54;60.77;101026.03;5072356;28;20107;-44
2023/01/01 04:29:55;;;;;;;6.85;1.77;;;;;;;14.54;60.70;101022.59;5065359;28;20119;-40
2023/01/01 04:32:21;;;;;;;9.10;1.85;;;;;;;14.53;61.15;101011.38;5072596;28;20388;-43
2023/01/01 04:34:47;;;;;;;10.05;2.08;;;;;;;14.53;61.27;101010.50;5068748;28;20454;-42
2023/01/01 04:37:12;;;;;;;12.38;1.95;;;;;;;14.52;61.28;101030.34;5072164;28;20063;-41
2023/01/01 04:39:37;;;;;;;7.50;1.60;;;;;;;14.51;61.19;101023.44;5068787;28;20024;-42
2023/01/01 04:42:03;;;;;;;5.05;1.50;;;;;;;14.51;61.51;101025.16;5066324;28;20024;-42
2023/01/01 04:44:28;;;;;;;8.27;1.90;;;;;;;14.50;61.63;101037.22;5070256;28;20111;-44
2023/01/01 04:46:54;;;;;;;5.18;1.30;;;;;;;14.49;61.45;101048.38;5070995;28;20434;-42
2023/01/01 04:49:19;;;;;;;9.13;1.80;;;;;;;14.48;61.99;101037.19;5075780;28;20063;-43
2023/01/01 04:51:45;;;;;;;8.27;1.75;;;;;;;14.47;61.69;101032.00;5072122;28;20040;-44
2023/01/01 04:54:11;;;;;;;6.93;1.98;;;;;;;14.49;62.08;101056.16;5070807;28;20521;-43
2023/01/01 04:56:36;;;;;;;9.68;1.88;;;;;;;14.48;62.01;101050.13;5074856;28;20721;-44
2023/01/01 04:59:01;;;;;;;6.78;1.73;;;;;;;14.47;62.39;101050.09;5069519;28;20033;-44
2023/01/01 05:01:28;;;;;;;6.55;1.55;;;;;;;14.47;62.36;101050.97;5070888;28;20060;-42
2023/01/01 05:03:55;;;;;;;8.82;1.77;;;;;;;14.46;62.87;101057.00;5077556;28;20033;-43
2023/01/01 05:06:21;;;;;;;8.25;1.95;;;;;;;14.46;62.95;101069.03;5068543;28;20075;-42
2023/01/01 05:08:49;;;;;;;7.07;1.70;;;;;;;14.45;63.27;101081.09;5069994;28;20442;-43
2023/01/01 05:11:17;;;;;;;5.57;1.92;;;;;;;14.45;63.40;101086.28;5062770;28;20035;-44
2023/01/01 05:13:45;;;;;;;5.25;1.65;;;;;;;14.44;63.38;101079.38;5069837;28;20590;-43
2023/01/01 05:16:13;;;;;;;8.07;1.83;;;;;;;14.43;63.87;101074.13;5066962;28;20454;-43
2023/01/01 05:18:39;;;;;;;12.27;1.90;;;;;;;14.43;63.66;101079.31;5070086;28;20047;-44
2023/01/01 05:21:08;;;;;;;6.10;1.77;;;;;;;14.42;64.19;101091.38;5075999;28;20052;-44
2023/01/01 05:23:34;;;;;;;;;;;;;;;14.54;64.37;101095.03;5067148;28;20020;-41
2023/01/01 05:26:06;;;;;;;10.50;1.90;;;;;;;14.43;64.34;101110.34;5075421;28;19912;-43
2023/01/01 05:28:32;;;;;;;9.93;1.88;;;;;;;14.41;64.44;101123.28;5073693;28;20210;-42
2023/01/01 05:30:57;;;;;;;10.35;2.15;;;;;;;14.42;64.45;101117.25;5071377;28;20051;-46
2023/01/01 05:33:22;;;;;;;7.35;1.80;;;;;;;14.42;64.63;101117.25;5072160;28;20047;-41
2023/01/01 05:35:54;;;;;;;8.05;2.10;;;;;;;14.40;64.96;101116.38;5074834;28;20039;-42
2023/01/01 05:38:19;;;;;;;7.57;1.80;;;;;;;14.40;65.14;101120.66;5075364;28;20480;-42
2023/01/01 05:40:44;;;;;;;7.55;2.15;;;;;;;14.39;65.63;101139.63;5070959;28;20041;-42
2023/01/01 05:43:10;;;;;;;12.45;2.20;;;;;;;14.37;65.58;101137.00;5076355;28;20075;-44
2023/01/01 05:45:35;;;;;;;8.15;1.98;;;;;;;14.36;65.93;101124.03;5072040;28;20477;-42
2023/01/01 05:48:01;;;;;;;7.13;1.55;;;;;;;14.32;66.44;101133.50;5074831;28;20020;-45
2023/01/01 05:50:27;;;;;;;7.57;1.88;;;;;;;14.32;66.40;101133.50;5068377;28;20422;-42
2023/01/01 05:52:52;;;;;;;11.15;1.70;;;;;;;14.31;66.92;101148.97;5073304;28;20020;-43
2023/01/01 05:55:17;;;;;;;10.25;1.70;;;;;;;14.29;67.22;101151.53;5071864;28;20040;-43
2023/01/01 05:57:43;;;;;;;7.22;1.88;;;;;;;14.27;67.42;101166.16;5071717;28;20031;-43
2023/01/01 06:00:09;;;;;;;8.35;2.42;;;;;;;14.26;67.67;101169.59;5078216;28;20056;-43
2023/01/01 06:02:34;;;;;;;8.57;1.90;;;;;;;14.26;67.72;101163.53;5066327;28;20432;-43
2023/01/01 06:04:59;;;;;;;6.97;1.70;;;;;;;14.22;67.69;101178.13;5078525;28;20021;-42
2023/01/01 06:07:25;;;;;;;12.57;2.45;;;;;;;14.20;67.91;101178.13;5075605;28;20086;-41
2023/01/01 06:09:50;;;;;;;9.73;2.10;;;;;;;14.20;68.35;101188.47;5073777;28;20036;-43
2023/01/01 06:12:15;;;;;;;7.13;1.92;;;;;;;14.17;68.60;101190.97;5065329;28;20056;-44
2023/01/01 06:14:41;;;;;;;8.25;1.98;;;;;;;14.15;68.98;101209.91;5067224;28;20377;-44
2023/01/01 06:17:06;;;;;;;5.70;1.75;;;;;;;14.13;69.54;101209.84;5066807;28;20062;-41
2023/01/01 06:19:31;;;;;;;7.72;1.60;;;;;;;14.11;69.41;101214.13;5070284;28;20409;-42
2023/01/01 06:21:57;;;;;;;9.20;1.67;;;;;;;14.08;69.48;101223.56;5070989;28;20024;-43
2023/01/01 06:24:22;;;;;;;5.72;1.58;;;;;;;14.04;68.83;101222.63;5073211;28;20119;-45
2023/01/01 06:26:47;;;;;;;5.18;1.38;;;;;;;14.00;68.80;101232.88;5067379;28;20060;-42
2023/01/01 06:29:13;;;;;;;6.95;1.17;;;;;;;13.93;70.27;101270.66;5071402;28;20104;-44
2023/01/01 06:31:38;;;;;;;4.50;1.20;;;;;;;13.78;72.89;101258.28;5070818;28;20024;-41
2023/01/01 06:34:03;;;;;;;12.13;1.40;;;;;;;13.73;75.03;101266.78;5074166;28;20042;-41
2023/01/01 06:36:29;;;;;;;4.13;1.30;;;;;;;13.61;75.92;101247.59;5073418;28;20025;-42
2023/01/01 06:38:57;;;;;;;6.13;1.70;;;;;;;13.57;76.71;101257.81;5073198;28;20032;-41
2023/01/01 06:41:24;;;;;;;5.60;1.45;;;;;;;13.52;77.02;101256.81;5073739;28;20531;-43
2023/01/01 06:43:50;;;;;;;8.07;1.70;;;;;;;13.50;77.60;101255.94;5075444;28;20024;-42
2023/01/01 06:46:21;;;;;;;4.28;1.52;;;;;;;13.45;77.58;101271.31;5071522;28;20094;-41
2023/01/01 06:48:51;;;;;;;6.13;1.42;;;;;;;13.45;77.49;101265.28;5074218;28;20042;-44
2023/01/01 06:51:19;;;;;;;4.70;1.30;;;;;;;13.44;75.70;101266.13;5072284;28;20111;-42
2023/01/01 06:53:46;;;;;;;4.47;1.02;;;;;;;13.41;75.58;101275.56;5069183;28;20024;-42
2023/01/01 06:56:11;;;;;;;5.10;0.95;;;;;;;13.39;75.36;101277.22;5073054;28;20035;-42
2023/01/01 06:58:37;;;;;;;5.95;1.10;;;;;;;13.39;75.34;101297.00;5075287;28;20028;-43
2023/01/01 07:01:12;;;;;;;5.32;1.23;;;;;;;13.42;75.03;101302.28;5074384;28;20539;-42
2023/01/01 07:03:38;;;;;;;10.15;1.30;;;;;;;13.38;75.19;101305.59;5070538;28;20107;-42
2023/01/01 07:06:05;;;;;;;4.90;1.20;;;;;;;13.35;75.26;101295.22;5074131;28;20028;-43
2023/01/01 07:08:31;;;;;;;4.78;1.15;;;;;;;13.35;76.13;101288.34;5066645;28;20510;-46
2023/01/01 07:10:56;;;;;;;3.13;1.02;;;;;;;13.32;77.00;101296.00;5064118;28;20028;-43
2023/01/01 07:13:26;;;;;;;5.28;1.45;;;;;;;13.32;77.07;101313.22;5071559;28;20033;-41
2023/01/01 07:15:52;;;;;;;5.50;1.83;;;;;;;13.26;77.38;101320.81;5062176;28;20031;-43
2023/01/01 07:18:19;;;;;;;9.23;1.52;;;;;;;13.26;77.32;101311.34;5062251;28;20032;-42
2023/01/01 07:20:51;;;;;;;5.85;1.35;;;;;;;13.27;77.61;101314.81;5065739;28;20029;-43
2023/01/01 07:23:17;;;;;;;7.53;1.30;;;;;;;13.25;77.53;101319.94;5069067;28;20427;-45
2023/01/01 07:25:42;;;;;;;6.40;1.50;;;;;;;13.24;78.02;101307.00;5072736;28;20035;-43
2023/01/01 07:28:08;;;;;;;4.10;1.40;;;;;;;13.23;78.05;101321.63;5068227;28;20040;-42
2023/01/01 07:30:33;;;;;;;7.25;1.70;;;;;;;13.19;78.01;101324.91;5068058;28;20110;-45
2023/01/01 07:32:59;;;;;;;4.47;1.58;;;;;;;13.17;78.39;101328.31;5075237;28;20039;-42
2023/01/01 07:35:24;;;;;;;6.93;1.27;;;;;;;13.18;77.33;101338.66;5068075;28;20032;-45
2023/01/01 07:37:49;;;;;;;5.82;1.38;;;;;;;13.18;78.03;101332.63;5078120;28;20116;-44
2023/01/01 07:40:15;;;;;;;5.43;1.27;;;;;;;13.16;76.83;101337.75;5063300;28;20036;-45
2023/01/01 07:42:40;;;;;;;8.27;1.40;;;;;;;13.16;76.88;101340.31;5067432;28;20139;-43
2023/01/01 07:45:06;;;;;;;5.90;1.52;;;;;;;13.14;76.90;101344.59;5069647;28;20452;-43
2023/01/01 07:47:31;;;;;;;7.05;1.48;;;;;;;13.07;75.70;101351.31;5069451;28;20037;-42
2023/01/01 07:49:57;;;;;;;5.63;1.35;;;;;;;13.05;75.47;101362.44;5072441;28;20112;-41
2023/01/01 07:52:23;;;;;;;6.05;1.15;;;;;;;13.03;75.04;101369.25;5067034;28;20384;-44
2023/01/01 07:54:48;;;;;;;8.80;1.48;;;;;;;13.02;75.74;101372.66;5073077;28;20051;-41
2023/01/01 07:57:14;;;;;;;7.05;1.30;;;;;;;13.02;75.98;101385.56;5066879;28;20047;-42
2023/01/01 07:59:40;;;;;;;5.88;1.40;;;;;;;12.97;76.43;101400.06;5069551;28;20476;-42
2023/01/01 08:02:05;;;;;;;4.35;1.20;;;;;;;12.96;77.32;101408.66;5061267;28;20412;-45
2023/01/01 08:04:30;;;;;;;7.22;1.17;;;;;;;12.87;79.29;101405.00;5074190;28;20487;-44
2023/01/01 08:06:56;;;;;;;8.05;1.63;;;;;;;12.93;80.64;101434.41;5068020;28;20032;-43
2023/01/01 08:09:22;;;;;;;7.47;1.60;;;;;;;12.81;81.44;101447.84;5070284;28;20493;-41
2023/01/01 08:11:47;;;;;;;11.57;1.60;;;;;;;12.78;82.79;101429.66;5070374;28;20032;-43
2023/01/01 08:14:13;;;;;;;8.40;1.38;;;;;;;12.79;83.29;101436.56;5067816;28;20460;-42
2023/01/01 08:16:38;;;;;;;7.72;1.40;;;;;;;12.75;84.33;101448.53;5065226;28;20024;-44
2023/01/01 08:19:04;;;;;;;8.38;1.25;;;;;;;12.73;84.80;101450.16;5065830;28;20165;-45
2023/01/01 08:21:29;;;;;;;4.90;1.40;;;;;;;12.71;85.32;101433.78;5065412;28;20385;-43
2023/01/01 08:23:55;;;;;;;6.32;1.50;;;;;;;12.66;85.75;101437.06;5066639;28;20039;-41
2023/01/01 08:26:29;;;;;;;6.85;1.50;;;;;;;12.64;85.98;101437.03;5065063;28;20508;-44
2023/01/01 08:28:54;;;;;;;5.25;1.33;;;;;;;12.58;86.75;101436.84;5071428;28;20129;-43
2023/01/01 08:31:20;;;;;;;5.70;1.33;;;;;;;12.50;87.20;101439.22;5074987;28;20502;-41
2023/01/01 08:33:45;;;;;;;6.90;1.35;;;;;;;12.54;87.84;101441.03;5069680;28;20085;-43
2023/01/01 08:36:13;;;;;;;5.85;1.50;;;;;;;12.58;88.47;101437.72;5074027;28;20115;-45
2023/01/01 08:38:38;;;;;;;10.35;1.80;;;;;;;12.61;88.12;101444.66;5066891;28;20058;-41
2023/01/01 08:41:04;;;;;;;7.90;1.38;;;;;;;12.62;88.82;101459.34;5068426;28;21071;-41
2023/01/01 08:43:29;;;;;;;8.52;1.63;;;;;;;12.62;88.24;101459.34;5062421;28;20028;-41
2023/01/01 08:45:54;;;;;;;5.28;1.40;;;;;;;12.60;88.98;101466.13;5064644;28;20025;-45
2023/01/01 08:48:20;;;;;;;6.35;1.35;;;;;;;12.66;88.87;101486.06;5059837;28;20044;-41
2023/01/01 08:50:52;;;;;;;6.80;1.55;;;;;;;12.63;88.96;101476.56;5069489;28;20031;-46
2023/01/01 08:53:17;;;;;;;9.70;1.60;;;;;;;12.56;89.47;101490.97;5066776;28;20048;-42
2023/01/01 08:55:43;;;;;;;7.80;1.38;;;;;;;12.60;89.70;101486.78;5066524;28;20518;-41
2023/01/01 08:58:08;;;;;;;6.45;1.52;;;;;;;12.54;89.96;101471.97;5072900;28;20384;-44
2023/01/01 09:00:33;;;;;;;8.55;1.42;;;;;;;12.56;90.03;101487.53;5067548;28;20389;-42
2023/01/01 09:02:59;;;;;;;6.20;1.30;;;;;;;12.54;90.58;101478.84;5071870;28;20028;-44
2023/01/01 09:05:24;;;;;;;5.95;1.50;;;;;;;12.55;90.71;101475.44;5074296;28;20163;-43
2023/01/01 09:07:49;;;;;;;9.98;1.55;;;;;;;12.56;90.88;101464.31;5070435;28;20102;-45
2023/01/01 09:10:15;;;;;;;7.55;1.65;;;;;;;12.51;91.23;101461.59;5077588;28;20035;-44
2023/01/01 09:12:40;;;;;;;4.40;1.20;;;;;;;12.50;91.30;101470.16;5077302;28;20052;-43
2023/01/01 09:15:06;;;;;;;7.15;1.55;;;;;;;12.52;91.57;101470.19;5076441;28;20133;-42
2023/01/01 09:17:31;;;;;;;10.10;1.60;;;;;;;12.51;91.87;101484.81;5080649;28;20027;-43
2023/01/01 09:19:57;;;;;;;8.05;1.85;;;;;;;12.50;91.97;101484.75;5081962;28;20048;-44
2023/01/01 09:22:22;;;;;;;6.80;1.67;;;;;;;12.49;92.47;101485.56;5077441;28;20044;-45
2023/01/01 09:24:47;;;;;;;8.35;1.90;;;;;;;12.54;92.35;101471.97;5070846;28;20036;-47
2023/01/01 09:27:13;;;;;;;9.57;1.60;;;;;;;12.52;92.94;101483.97;5069230;28;20070;-44
2023/01/01 09:29:38;;;;;;;9.75;1.80;;;;;;;12.54;92.56;101487.47;5064832;28;20044;-42
2023/01/01 09:32:03;;;;;;;7.32;1.63;;;;;;;12.55;92.47;101490.91;5079108;28;20024;-44
2023/01/01 09:34:29;;;;;;;9.38;1.77;;;;;;;12.55;92.85;101490.91;5073333;28;20031;-46
2023/01/01 09:36:54;;;;;;;10.10;1.90;;;;;;;12.56;93.02;101493.56;5072129;28;20035;-43
2023/01/01 09:39:19;;;;;;;12.18;1.90;;;;;;;12.54;93.27;101491.75;5055084;28;20029;-43
2023/01/01 09:42:19;;;;;;;11.10;2.70;;;;;;;12.60;93.30;101499.66;5065162;28;20035;-42
2023/01/01 09:45:02;;;;;;;9.68;2.05;;;;;;;12.56;93.77;101503.88;5059883;28;20043;-45
2023/01/01 09:47:39;;;;;;;6.50;1.90;;;;;;;12.59;93.93;101496.22;5059312;28;20025;-43
2023/01/01 09:50:11;;;;;;;9.57;2.08;;;;;;;12.59;94.27;101496.22;5060958;28;20551;-46
2023/01/01 09:53:02;;;;;;;6.00;1.73;;;;;;;12.65;93.70;101495.53;5060747;28;20775;-46
2023/01/01 09:55:36;;;;;;;11.38;2.13;;;;;;;12.58;94.15;101499.63;5063765;28;20484;-45
2023/01/01 09:58:02;;;;;;;12.88;2.45;;;;;;;12.59;94.36;101506.53;5066265;28;20095;-42
2023/01/01 10:00:31;;;;;;;7.78;2.03;;;;;;;12.56;94.65;101501.31;5064072;28;20043;-46
2023/01/01 10:03:07;;;;;;;9.13;2.33;;;;;;;12.61;94.65;101502.28;5065828;28;20028;-43
2023/01/01 10:05:38;;;;;;;7.18;1.95;;;;;;;12.60;94.74;101499.66;5062299;28;20585;-47
2023/01/01 10:08:37;;;;;;;8.13;2.58;;;;;;;12.67;94.20;101499.03;5062917;28;20056;-42
2023/01/01 10:11:19;;;;;;;10.40;1.98;;;;;;;12.70;93.83;101496.53;5066089;28;20057;-44
2023/01/01 10:13:45;;;;;;;7.72;2.15;;;;;;;12.65;94.06;101499.81;5066264;28;20119;-44
2023/01/01 10:16:17;;;;;;;9.55;2.47;;;;;;;12.66;94.49;101506.72;5066908;28;20103;-43
2023/01/01 10:18:45;;;;;;;7.57;1.92;;;;;;;12.65;94.53;101505.84;5072399;28;20107;-45
2023/01/01 10:21:20;;;;;;;9.18;2.47;;;;;;;12.70;94.03;101499.13;5072542;28;20029;-45
2023/01/01 10:24:27;;;;;;;10.23;2.50;;;;;;;12.77;93.58;101500.19;5073021;28;20033;-45
2023/01/01 10:26:54;;;;;;;9.68;2.83;;;;;;;12.75;93.73;101496.69;5083074;28;20046;-46
2023/01/01 10:29:48;;;;;;;8.05;2.00;;;;;;;12.83;92.96;101497.78;5070653;28;20045;-46
2023/01/01 10:32:20;;;;;;;11.98;2.72;;;;;;;12.74;94.29;101500.06;5068736;28;20088;-43
2023/01/01 10:34:46;;;;;;;7.45;2.22;;;;;;;12.78;94.61;101505.38;5072852;28;20020;-43
2023/01/01 10:37:13;;;;;;;10.05;2.72;;;;;;;12.75;93.76;101502.72;5073110;28;20093;-43
2023/01/01 10:39:40;;;;;;;12.63;2.92;;;;;;;12.80;93.39;101500.25;5073901;28;20548;-45
2023/01/01 10:42:05;;;;;;;7.18;2.50;;;;;;;12.85;92.52;101499.56;5070383;28;20400;-44
2023/01/01 10:44:33;;;;;;;9.90;3.20;;;;;;;12.88;91.90;101494.50;5073422;28;20032;-45
2023/01/01 10:47:10;;;;;;;10.57;3.10;;;;;;;12.90;91.41;101491.94;5072910;28;20032;-45
2023/01/01 10:49:56;;;;;;;10.68;3.30;;;;;;;13.00;91.10;101495.69;5079894;28;20030;-44
2023/01/01 10:52:32;;;;;;;9.85;3.38;;;;;;;13.01;90.71;101503.47;5068615;28;20115;-45
2023/01/01 10:54:59;;;;;;;13.07;3.00;;;;;;;13.01;89.85;101510.34;5064527;28;20043;-45
2023/01/01 10:57:34;;;;;;;11.15;2.88;;;;;;;13.09;90.27;101519.16;5072932;28;20033;-42
2023/01/01 11:00:25;;;;;;;14.10;2.72;;;;;;;13.14;89.75;101521.03;5067242;28;20107;-42
2023/01/01 11:03:13;;;;;;;12.88;2.92;;;;;;;13.21;89.89;101509.19;5076269;28;20032;-44
2023/01/01 11:05:38;;;;;;;9.02;3.08;;;;;;;13.20;90.14;101522.91;5072003;28;20063;-44
2023/01/01 11:08:16;;;;;;;10.52;3.38;;;;;;;13.29;89.89;101519.78;5074212;28;20056;-44
2023/01/01 11:10:49;;;;;;;12.40;3.00;;;;;;;13.30;89.85;101530.13;5063246;28;20027;-45
2023/01/01 11:13:19;;;;;;;10.70;2.88;;;;;;;13.29;89.00;101530.97;5071375;28;20758;-45
2023/01/01 11:15:45;;;;;;;12.40;2.97;;;;;;;13.31;89.56;101533.59;5068639;28;20028;-43
2023/01/01 11:18:19;;;;;;;9.68;2.83;;;;;;;13.31;90.01;101531.00;5070515;28;20032;-44
2023/01/01 11:20:51;;;;;;;10.82;3.13;;;;;;;13.32;89.46;101532.75;5074080;28;20418;-42
2023/01/01 11:23:29;;;;;;;12.40;2.90;;;;;;;13.32;88.32;101537.91;5071452;28;20024;-44
2023/01/01 11:26:15;;;;;;;12.10;2.60;;;;;;;13.29;87.77;101538.72;5070942;28;20472;-43
2023/01/01 11:28:41;;;;;;;10.48;2.78;;;;;;;13.31;88.24;101542.22;5065060;28;20564;-43
2023/01/01 11:31:18;;;;;;;9.43;3.05;;;;;;;13.32;88.50;101528.47;5080318;28;20115;-44
2023/01/01 11:33:52;;;;;;;12.38;3.03;;;;;;;13.35;87.86;101514.78;5072946;28;20503;-44
2023/01/01 11:36:29;;;;;;;12.35;2.78;;;;;;;13.36;86.72;101521.69;5068205;28;20089;-43
2023/01/01 11:39:13;;;;;;;14.95;3.15;;;;;;;13.38;86.90;101517.41;5069404;28;20020;-45